createdAt,value
2019-02-16T00:00:19.093Z,93.51
2019-02-16T00:01:19.107Z,93.19
2019-02-16T00:02:19.035Z,93.30
2019-02-16T00:03:19.136Z,93.19
2019-02-16T00:04:19.058Z,93.19
2019-02-16T00:05:19.015Z,93.62
2019-02-16T00:06:19.025Z,93.55
2019-02-16T00:07:19.007Z,93.72
2019-02-16T00:08:18.987Z,93.97
2019-02-16T00:09:19.100Z,94.04
2019-02-16T00:10:18.958Z,94.08
2019-02-16T00:11:18.978Z,93.76
2019-02-16T00:12:18.952Z,93.93
2019-02-16T00:13:19.020Z,93.55
2019-02-16T00:14:18.933Z,94.08
2019-02-16T00:15:18.951Z,93.93
2019-02-16T00:16:18.890Z,93.93
2019-02-16T00:17:18.991Z,93.72
2019-02-16T00:18:18.872Z,93.72
2019-02-16T00:19:18.961Z,93.93
2019-02-16T00:20:18.842Z,94.04
2019-02-16T00:21:18.832Z,94.24
2019-02-16T00:22:18.922Z,93.82
2019-02-16T00:23:18.813Z,93.82
2019-02-16T00:24:18.904Z,94.04
2019-02-16T00:25:18.804Z,93.51
2019-02-16T00:26:18.786Z,94.08
2019-02-16T00:27:18.774Z,93.93
2019-02-16T00:28:18.836Z,94.04
2019-02-16T00:29:18.765Z,93.51
2019-02-16T00:30:18.777Z,93.24
2019-02-16T00:31:18.736Z,93.55
2019-02-16T00:32:19.736Z,93.24
2019-02-16T00:33:18.697Z,93.66
2019-02-16T00:34:18.800Z,93.82
2019-02-16T00:35:18.688Z,94.08
2019-02-16T00:36:19.708Z,94.29
2019-02-16T00:37:18.749Z,94.08
2019-02-16T00:38:18.649Z,93.82
2019-02-16T00:39:18.740Z,93.93
2019-02-16T00:40:18.633Z,93.72
2019-02-16T00:41:19.640Z,93.51
2019-02-16T00:42:18.690Z,93.66
2019-02-16T00:43:18.601Z,93.40
2019-02-16T00:44:18.671Z,93.02
2019-02-16T00:45:18.572Z,93.30
2019-02-16T00:46:18.663Z,93.44
2019-02-16T00:47:18.553Z,93.44
2019-02-16T00:48:18.607Z,93.34
2019-02-16T00:49:18.535Z,93.87
2019-02-16T00:50:18.637Z,94.18
2019-02-16T00:51:18.493Z,94.18
2019-02-16T00:52:18.564Z,93.93
2019-02-16T00:53:18.474Z,93.44
2019-02-16T00:54:19.575Z,93.66
2019-02-16T00:55:18.466Z,93.13
2019-02-16T00:56:18.535Z,93.55
2019-02-16T00:57:18.426Z,93.34
2019-02-16T00:58:18.416Z,93.13
2019-02-16T00:59:18.488Z,92.92
2019-02-16T01:00:18.522Z,93.66
2019-02-16T01:01:18.388Z,93.34
2019-02-16T01:02:19.488Z,93.34
2019-02-16T01:03:18.418Z,93.76
2019-02-16T01:04:18.369Z,93.76
2019-02-16T01:05:18.460Z,93.76
2019-02-16T01:06:18.349Z,93.44
2019-02-16T01:07:18.399Z,93.24
2019-02-16T01:08:18.322Z,93.02
2019-02-16T01:09:18.382Z,93.02
2019-02-16T01:10:18.281Z,92.92
2019-02-16T01:11:25.159Z,93.59
2019-02-16T01:12:18.262Z,93.28
2019-02-16T01:13:19.321Z,93.70
2019-02-16T01:14:18.254Z,93.70
2019-02-16T01:15:18.292Z,93.59
2019-02-16T01:16:18.233Z,94.23
2019-02-16T01:17:18.277Z,93.59
2019-02-16T01:18:18.205Z,93.59
2019-02-16T01:19:18.194Z,94.01
2019-02-16T01:20:18.228Z,94.17
2019-02-16T01:21:22.831Z,94.65
2019-02-16T01:22:19.240Z,94.85
2019-02-16T01:23:18.146Z,94.75
2019-02-16T01:24:18.146Z,94.48
2019-02-16T01:25:18.139Z,94.43
2019-02-16T01:26:18.187Z,95.17
2019-02-16T01:27:18.108Z,94.54
2019-02-16T01:28:18.118Z,94.33
2019-02-16T01:29:18.078Z,94.23
2019-02-16T01:30:18.078Z,95.00
2019-02-16T01:31:18.129Z,94.75
2019-02-16T01:32:18.042Z,94.17
2019-02-16T01:33:18.059Z,94.17
2019-02-16T01:34:18.022Z,93.95
2019-02-16T01:35:18.029Z,94.17
2019-02-16T01:36:17.990Z,93.85
2019-02-16T01:37:18.031Z,94.37
2019-02-16T01:38:17.970Z,95.00
2019-02-16T01:39:18.077Z,94.90
2019-02-16T01:40:17.981Z,94.69
2019-02-16T01:41:17.943Z,94.69
2019-02-16T01:42:17.972Z,94.06
2019-02-16T01:43:17.924Z,94.06
2019-02-16T01:44:18.023Z,94.90
2019-02-16T01:45:17.913Z,94.90
2019-02-16T01:46:17.954Z,94.90
2019-02-16T01:47:17.884Z,94.94
2019-02-16T01:48:17.995Z,94.94
2019-02-16T01:49:17.865Z,94.73
2019-02-16T01:50:18.895Z,94.62
2019-02-16T01:51:17.839Z,94.52
2019-02-16T01:52:17.856Z,95.26
2019-02-16T01:53:17.796Z,95.15
2019-02-16T01:54:17.897Z,94.62
2019-02-16T01:55:17.807Z,94.58
2019-02-16T01:56:26.597Z,94.69
2019-02-16T01:57:17.768Z,94.73
2019-02-16T01:58:17.869Z,94.69
2019-02-16T01:59:17.749Z,94.73
2019-02-16T02:00:17.862Z,94.52
2019-02-16T02:01:17.726Z,94.94
2019-02-16T02:02:17.742Z,94.73
2019-02-16T02:03:17.691Z,94.78
2019-02-16T02:04:17.781Z,94.94
2019-02-16T02:05:17.691Z,94.42
2019-02-16T02:06:17.711Z,95.04
2019-02-16T02:07:17.682Z,95.26
2019-02-16T02:08:17.642Z,94.84
2019-02-16T02:09:17.733Z,95.36
2019-02-16T02:10:17.633Z,95.26
2019-02-16T02:11:17.654Z,94.84
2019-02-16T02:12:17.661Z,95.15
2019-02-16T02:13:17.583Z,95.26
2019-02-16T02:14:17.655Z,95.04
2019-02-16T02:15:17.574Z,94.84
2019-02-16T02:16:17.596Z,94.94
2019-02-16T02:17:17.665Z,95.47
2019-02-16T02:18:17.527Z,95.26
2019-02-16T02:19:17.597Z,95.47
2019-02-16T02:20:17.536Z,94.73
2019-02-16T02:21:17.537Z,95.36
2019-02-16T02:22:17.497Z,94.62
2019-02-16T02:23:17.578Z,94.56
2019-02-16T02:24:17.479Z,95.04
2019-02-16T02:25:17.558Z,94.67
2019-02-16T02:26:17.448Z,94.42
2019-02-16T02:27:17.549Z,94.67
2019-02-16T02:28:17.501Z,94.84
2019-02-16T02:29:17.420Z,95.15
2019-02-16T02:30:17.502Z,95.36
2019-02-16T02:31:17.400Z,95.30
2019-02-16T02:32:17.492Z,95.20
2019-02-16T02:33:17.453Z,95.26
2019-02-16T02:34:17.362Z,94.52
2019-02-16T02:35:17.441Z,94.94
2019-02-16T02:36:17.323Z,94.42
2019-02-16T02:37:17.422Z,95.09
2019-02-16T02:38:17.324Z,95.15
2019-02-16T02:39:17.364Z,94.84
2019-02-16T02:40:17.315Z,94.62
2019-02-16T02:41:17.396Z,95.15
2019-02-16T02:42:17.276Z,94.84
2019-02-16T02:43:17.325Z,94.73
2019-02-16T02:44:17.246Z,94.94
2019-02-16T02:45:17.306Z,95.04
2019-02-16T02:46:17.226Z,95.26
2019-02-16T02:47:17.299Z,94.67
2019-02-16T02:48:17.196Z,94.67
2019-02-16T02:49:17.187Z,94.84
2019-02-16T02:50:19.287Z,94.73
2019-02-16T02:51:17.158Z,94.56
2019-02-16T02:52:24.089Z,94.88
2019-02-16T02:53:17.160Z,94.46
2019-02-16T02:54:17.120Z,95.20
2019-02-16T02:55:17.109Z,95.09
2019-02-16T02:56:17.151Z,94.67
2019-02-16T02:57:17.100Z,94.98
2019-02-16T02:58:17.141Z,94.88
2019-02-16T02:59:17.092Z,94.98
2019-02-16T03:00:17.082Z,94.88
2019-02-16T03:01:17.102Z,95.30
2019-02-16T03:02:17.054Z,95.72
2019-02-16T03:03:17.082Z,95.72
2019-02-16T03:04:17.033Z,95.62
2019-02-16T03:05:17.025Z,95.83
2019-02-16T03:06:18.071Z,95.62
2019-02-16T03:07:16.994Z,95.62
2019-02-16T03:08:17.025Z,95.72
2019-02-16T03:09:16.974Z,95.93
2019-02-16T03:10:16.955Z,95.51
2019-02-16T03:11:16.975Z,95.51
2019-02-16T03:12:16.995Z,95.20
2019-02-16T03:13:16.937Z,95.20
2019-02-16T03:14:16.926Z,95.30
2019-02-16T03:15:16.907Z,95.30
2019-02-16T03:16:17.017Z,95.30
2019-02-16T03:17:16.889Z,95.20
2019-02-16T03:18:16.898Z,95.20
2019-02-16T03:19:16.878Z,94.88
2019-02-16T03:20:17.959Z,94.98
2019-02-16T03:21:17.880Z,95.20
2019-02-16T03:22:16.820Z,94.88
2019-02-16T03:23:16.858Z,94.98
2019-02-16T03:24:16.800Z,95.20
2019-02-16T03:25:16.881Z,95.20
2019-02-16T03:26:16.891Z,94.88
2019-02-16T03:27:16.771Z,95.09
2019-02-16T03:28:16.783Z,94.98
2019-02-16T03:29:16.741Z,94.88
2019-02-16T03:30:17.846Z,95.30
2019-02-16T03:31:16.733Z,96.03
2019-02-16T03:32:16.753Z,96.03
2019-02-16T03:33:16.704Z,95.83
2019-02-16T03:34:17.836Z,95.83
2019-02-16T03:35:16.686Z,95.20
2019-02-16T03:36:16.764Z,94.67
2019-02-16T03:37:16.679Z,95.09
2019-02-16T03:38:16.765Z,95.20
2019-02-16T03:39:16.648Z,94.88
2019-02-16T03:40:17.734Z,95.09
2019-02-16T03:41:16.636Z,94.98
2019-02-16T03:42:16.609Z,94.88
2019-02-16T03:43:16.706Z,95.30
2019-02-16T03:44:16.571Z,94.78
2019-02-16T03:45:16.647Z,95.30
2019-02-16T03:46:16.578Z,95.20
2019-02-16T03:47:16.557Z,94.88
2019-02-16T03:48:16.548Z,95.20
2019-02-16T03:49:16.609Z,95.20
2019-02-16T03:50:16.522Z,95.34
2019-02-16T03:51:16.604Z,94.92
2019-02-16T03:52:16.502Z,95.34
2019-02-16T03:53:16.498Z,94.71
2019-02-16T03:54:16.564Z,95.55
2019-02-16T03:55:16.477Z,95.03
2019-02-16T03:56:16.482Z,95.03
2019-02-16T03:57:16.454Z,95.45
2019-02-16T03:58:16.425Z,95.34
2019-02-16T03:59:16.413Z,95.34
2019-02-16T04:00:16.473Z,95.24
2019-02-16T04:01:16.404Z,95.24
2019-02-16T04:02:16.436Z,95.03
2019-02-16T04:03:23.103Z,95.03
2019-02-16T04:04:16.364Z,95.66
2019-02-16T04:05:16.394Z,95.87
2019-02-16T04:06:16.337Z,95.76
2019-02-16T04:07:16.365Z,95.97
2019-02-16T04:08:16.317Z,96.19
2019-02-16T04:09:16.313Z,95.66
2019-02-16T04:10:16.346Z,96.14
2019-02-16T04:11:16.287Z,95.87
2019-02-16T04:12:16.310Z,95.83
2019-02-16T04:13:16.259Z,96.03
2019-02-16T04:14:16.248Z,95.97
2019-02-16T04:15:16.248Z,96.29
2019-02-16T04:16:17.268Z,95.93
2019-02-16T04:17:16.248Z,96.98
2019-02-16T04:18:17.299Z,96.88
2019-02-16T04:19:16.249Z,96.77
2019-02-16T04:20:16.201Z,96.98
2019-02-16T04:21:16.290Z,96.98
2019-02-16T04:22:24.261Z,97.25
2019-02-16T04:23:17.164Z,97.25
2019-02-16T04:24:16.191Z,97.57
2019-02-16T04:25:16.142Z,97.36
2019-02-16T04:26:18.162Z,97.42
2019-02-16T04:27:16.123Z,97.05
2019-02-16T04:28:16.155Z,97.63
2019-02-16T04:29:16.094Z,97.53
2019-02-16T04:30:16.084Z,97.31
2019-02-16T04:31:16.163Z,97.42
2019-02-16T04:32:16.104Z,97.53
2019-02-16T04:33:16.096Z,97.00
2019-02-16T04:34:16.034Z,97.00
2019-02-16T04:35:16.035Z,96.26
2019-02-16T04:36:16.017Z,96.89
2019-02-16T04:37:16.067Z,96.95
2019-02-16T04:38:16.008Z,97.27
2019-02-16T04:39:16.006Z,96.95
2019-02-16T04:40:16.068Z,96.95
2019-02-16T04:41:15.959Z,97.38
2019-02-16T04:42:18.048Z,97.64
2019-02-16T04:43:15.959Z,97.54
2019-02-16T04:44:15.940Z,97.44
2019-02-16T04:45:15.911Z,97.44
2019-02-16T04:46:17.020Z,97.39
2019-02-16T04:47:15.889Z,97.39
2019-02-16T04:48:15.951Z,97.39
2019-02-16T04:49:15.879Z,96.30
2019-02-16T04:50:15.941Z,96.61
2019-02-16T04:51:15.853Z,96.51
2019-02-16T04:52:16.916Z,95.67
2019-02-16T04:53:15.851Z,95.94
2019-02-16T04:54:15.922Z,95.52
2019-02-16T04:55:15.813Z,95.21
2019-02-16T04:56:15.803Z,95.00
2019-02-16T04:57:15.793Z,94.89
2019-02-16T04:58:15.844Z,94.64
2019-02-16T04:59:15.775Z,93.80
2019-02-16T05:00:16.854Z,93.38
2019-02-16T05:01:15.746Z,93.32
2019-02-16T05:02:15.765Z,93.38
2019-02-16T05:03:15.735Z,92.96
2019-02-16T05:04:15.818Z,93.27
2019-02-16T05:05:15.706Z,93.13
2019-02-16T05:06:15.736Z,92.71
2019-02-16T05:07:15.687Z,92.44
2019-02-16T05:08:15.777Z,91.87
2019-02-16T05:09:15.677Z,92.29
2019-02-16T05:10:15.707Z,91.77
2019-02-16T05:11:15.640Z,91.66
2019-02-16T05:12:15.630Z,91.98
2019-02-16T05:13:15.718Z,91.66
2019-02-16T05:14:15.608Z,91.14
2019-02-16T05:15:15.649Z,91.31
2019-02-16T05:16:15.571Z,91.83
2019-02-16T05:17:15.560Z,90.51
2019-02-16T05:18:15.550Z,89.98
2019-02-16T05:19:16.586Z,90.41
2019-02-16T05:20:15.531Z,90.72
2019-02-16T05:21:15.557Z,91.03
2019-02-16T05:22:15.511Z,91.87
2019-02-16T05:23:15.592Z,91.35
2019-02-16T05:24:15.503Z,91.46
2019-02-16T05:25:16.543Z,91.87
2019-02-16T05:26:15.474Z,90.93
2019-02-16T05:27:15.554Z,91.35
2019-02-16T05:28:15.454Z,91.24
2019-02-16T05:29:15.544Z,91.87
2019-02-16T05:30:15.435Z,91.66
2019-02-16T05:31:15.536Z,91.87
2019-02-16T05:32:15.407Z,91.87
2019-02-16T05:33:15.396Z,91.66
2019-02-16T05:34:15.486Z,92.50
2019-02-16T05:35:15.377Z,92.50
2019-02-16T05:36:15.478Z,92.35
2019-02-16T05:37:15.357Z,92.29
2019-02-16T05:38:15.348Z,91.77
2019-02-16T05:39:15.348Z,92.08
2019-02-16T05:40:15.349Z,91.31
2019-02-16T05:41:15.309Z,91.41
2019-02-16T05:42:15.379Z,91.62
2019-02-16T05:43:15.293Z,91.41
2019-02-16T05:44:15.281Z,91.31
2019-02-16T05:45:15.280Z,90.89
2019-02-16T05:46:15.261Z,91.41
2019-02-16T05:47:16.340Z,91.41
2019-02-16T05:48:15.232Z,91.20
2019-02-16T05:49:15.237Z,90.36
2019-02-16T05:50:15.202Z,90.16
2019-02-16T05:51:15.310Z,90.47
2019-02-16T05:52:15.184Z,90.78
2019-02-16T05:53:15.224Z,91.83
2019-02-16T05:54:15.233Z,91.52
2019-02-16T05:55:15.143Z,91.87
2019-02-16T05:56:15.234Z,90.20
2019-02-16T05:57:15.128Z,90.68
2019-02-16T05:58:16.194Z,90.58
2019-02-16T05:59:15.121Z,90.47
2019-02-16T06:00:15.096Z,90.20
2019-02-16T06:01:15.165Z,90.89
2019-02-16T06:02:15.066Z,90.99
2019-02-16T06:03:15.098Z,91.24
2019-02-16T06:04:15.071Z,91.09
2019-02-16T06:05:15.048Z,91.20
2019-02-16T06:06:15.117Z,91.09
2019-02-16T06:07:15.028Z,90.83
2019-02-16T06:08:15.049Z,90.78
2019-02-16T06:09:15.020Z,90.41
2019-02-16T06:10:14.990Z,90.93
2019-02-16T06:11:15.049Z,90.89
2019-02-16T06:12:14.959Z,90.47
2019-02-16T06:13:16.009Z,90.47
2019-02-16T06:14:14.950Z,90.26
2019-02-16T06:15:14.942Z,90.99
2019-02-16T06:16:14.911Z,90.16
2019-02-16T06:17:14.961Z,90.47
2019-02-16T06:18:14.902Z,90.16
2019-02-16T06:19:14.992Z,90.16
2019-02-16T06:20:14.902Z,89.53
2019-02-16T06:21:14.873Z,89.53
2019-02-16T06:22:15.923Z,89.32
2019-02-16T06:23:14.856Z,89.42
2019-02-16T06:24:14.937Z,89.11
2019-02-16T06:25:14.840Z,89.42
2019-02-16T06:26:14.837Z,89.32
2019-02-16T06:27:14.797Z,89.84
2019-02-16T06:28:14.905Z,89.32
2019-02-16T06:29:14.777Z,89.42
2019-02-16T06:30:14.876Z,89.42
2019-02-16T06:31:14.746Z,89.80
2019-02-16T06:32:15.797Z,89.63
2019-02-16T06:33:14.738Z,89.63
2019-02-16T06:34:14.808Z,89.63
2019-02-16T06:35:14.742Z,89.73
2019-02-16T06:36:14.748Z,89.84
2019-02-16T06:37:14.681Z,89.53
2019-02-16T06:38:14.789Z,89.63
2019-02-16T06:39:14.679Z,90.16
2019-02-16T06:40:15.905Z,90.09
2019-02-16T06:41:14.654Z,90.16
2019-02-16T06:42:14.821Z,90.51
2019-02-16T06:43:14.731Z,90.61
2019-02-16T06:44:14.694Z,90.51
2019-02-16T06:45:15.865Z,90.41
2019-02-16T06:46:14.610Z,90.83
2019-02-16T06:47:14.583Z,90.89
2019-02-16T06:48:14.636Z,91.24
2019-02-16T06:49:15.653Z,91.87
2019-02-16T06:50:15.483Z,90.72
2019-02-16T06:51:15.020Z,90.41
2019-02-16T06:52:14.644Z,90.05
2019-02-16T06:53:14.524Z,89.63
2019-02-16T06:54:14.574Z,89.63
2019-02-16T06:55:15.045Z,89.38
2019-02-16T06:56:14.605Z,89.48
2019-02-16T06:57:14.486Z,89.38
2019-02-16T06:58:14.546Z,89.28
2019-02-16T06:59:14.448Z,89.28
2019-02-16T07:00:14.527Z,89.07
2019-02-16T07:01:14.438Z,89.28
2019-02-16T07:02:15.419Z,88.29
2019-02-16T07:03:14.418Z,87.77
2019-02-16T07:04:14.449Z,86.90
2019-02-16T07:05:14.399Z,83.62
2019-02-16T07:06:14.490Z,81.45
2019-02-16T07:07:14.549Z,80.37
2019-02-16T07:08:14.349Z,77.58
2019-02-16T07:09:14.381Z,78.69
2019-02-16T07:10:14.341Z,78.69
2019-02-16T07:11:14.421Z,77.93
2019-02-16T07:12:14.312Z,77.83
2019-02-16T07:13:14.333Z,78.14
2019-02-16T07:14:14.282Z,78.66
2019-02-16T07:15:14.653Z,77.93
2019-02-16T07:16:14.263Z,77.93
2019-02-16T07:17:14.344Z,78.87
2019-02-16T07:18:14.304Z,79.18
2019-02-16T07:19:14.244Z,79.60
2019-02-16T07:20:14.285Z,80.68
2019-02-16T07:21:14.225Z,80.26
2019-02-16T07:22:15.299Z,80.68
2019-02-16T07:23:22.205Z,80.82
2019-02-16T07:24:15.336Z,81.06
2019-02-16T07:25:14.387Z,81.38
2019-02-16T07:26:14.173Z,81.41
2019-02-16T07:27:14.218Z,81.10
2019-02-16T07:28:14.169Z,82.25
2019-02-16T07:29:14.248Z,81.93
2019-02-16T07:30:14.198Z,82.25
2019-02-16T07:31:15.789Z,82.25
2019-02-16T07:32:14.263Z,82.46
2019-02-16T07:33:14.121Z,82.07
2019-02-16T07:34:14.070Z,83.01
2019-02-16T07:35:14.160Z,83.01
2019-02-16T07:36:14.071Z,82.95
2019-02-16T07:37:16.143Z,83.89
2019-02-16T07:38:14.042Z,84.73
2019-02-16T07:39:14.023Z,84.38
2019-02-16T07:40:14.092Z,83.95
2019-02-16T07:41:14.042Z,83.75
2019-02-16T07:42:14.401Z,83.01
2019-02-16T07:43:13.974Z,83.54
2019-02-16T07:44:13.960Z,83.85
2019-02-16T07:45:14.034Z,84.58
2019-02-16T07:46:13.954Z,84.69
2019-02-16T07:47:13.965Z,84.17
2019-02-16T07:48:13.915Z,85.35
2019-02-16T07:49:13.895Z,84.17
2019-02-16T07:50:13.895Z,84.58
2019-02-16T07:51:13.976Z,85.31
2019-02-16T07:52:13.868Z,86.57
2019-02-16T07:53:13.866Z,86.67
2019-02-16T07:54:14.958Z,86.92
2019-02-16T07:55:13.853Z,86.29
2019-02-16T07:56:13.918Z,85.77
2019-02-16T07:57:13.828Z,86.19
2019-02-16T07:58:13.908Z,86.77
2019-02-16T07:59:13.799Z,86.67
2019-02-16T08:00:13.859Z,86.74
2019-02-16T08:01:13.799Z,86.74
2019-02-16T08:02:13.793Z,86.38
2019-02-16T08:03:13.751Z,84.78
2019-02-16T08:04:13.821Z,84.53
2019-02-16T08:05:13.742Z,84.53
2019-02-16T08:06:13.812Z,84.95
2019-02-16T08:07:13.758Z,83.56
2019-02-16T08:08:13.803Z,81.85
2019-02-16T08:09:13.712Z,81.75
2019-02-16T08:10:13.674Z,80.88
2019-02-16T08:11:13.693Z,80.32
2019-02-16T08:12:14.695Z,76.75
2019-02-16T08:13:13.642Z,78.62
2019-02-16T08:14:13.711Z,79.21
2019-02-16T08:15:13.635Z,79.31
2019-02-16T08:16:13.689Z,78.34
2019-02-16T08:17:13.605Z,75.29
2019-02-16T08:18:13.676Z,76.95
2019-02-16T08:19:13.576Z,76.64
2019-02-16T08:20:13.607Z,75.15
2019-02-16T08:21:13.697Z,78.16
2019-02-16T08:22:13.629Z,77.16
2019-02-16T08:23:13.549Z,75.53
2019-02-16T08:24:14.598Z,73.94
2019-02-16T08:25:13.512Z,72.85
2019-02-16T08:26:13.509Z,71.81
2019-02-16T08:27:13.489Z,68.77
2019-02-16T08:28:13.550Z,67.50
2019-02-16T08:29:13.470Z,68.99
2019-02-16T08:30:13.491Z,68.68
2019-02-16T08:31:13.442Z,68.85
2019-02-16T08:32:14.502Z,67.00
2019-02-16T08:33:13.423Z,64.70
2019-02-16T08:34:13.463Z,64.80
2019-02-16T08:35:13.413Z,67.00
2019-02-16T08:36:13.503Z,66.79
2019-02-16T08:37:13.403Z,64.76
2019-02-16T08:38:13.436Z,66.30
2019-02-16T08:39:13.368Z,64.93
2019-02-16T08:40:13.397Z,63.43
2019-02-16T08:41:13.346Z,63.81
2019-02-16T08:42:13.345Z,64.56
2019-02-16T08:43:13.325Z,62.19
2019-02-16T08:44:13.346Z,63.64
2019-02-16T08:45:13.297Z,61.91
2019-02-16T08:46:13.387Z,63.09
2019-02-16T08:47:13.298Z,62.34
2019-02-16T08:48:13.298Z,61.75
2019-02-16T08:49:13.259Z,59.97
2019-02-16T08:50:14.279Z,56.88
2019-02-16T08:51:13.249Z,54.79
2019-02-16T08:52:13.339Z,57.03
2019-02-16T08:53:13.211Z,60.56
2019-02-16T08:54:13.337Z,59.04
2019-02-16T08:55:13.191Z,58.84
2019-02-16T08:56:13.293Z,60.05
2019-02-16T08:57:13.181Z,56.82
2019-02-16T08:58:13.172Z,58.83
2019-02-16T08:59:13.162Z,56.18
2019-02-16T09:00:13.136Z,56.85
2019-02-16T09:01:13.193Z,54.66
2019-02-16T09:02:13.144Z,55.21
2019-02-16T09:03:13.094Z,52.87
2019-02-16T09:04:13.096Z,49.52
2019-02-16T09:05:13.165Z,49.30
2019-02-16T09:06:13.065Z,47.33
2019-02-16T09:07:13.106Z,41.16
2019-02-16T09:08:13.116Z,40.67
2019-02-16T09:09:13.026Z,41.55
2019-02-16T09:10:13.117Z,40.41
2019-02-16T09:11:13.007Z,38.02
2019-02-16T09:12:13.038Z,36.25
2019-02-16T09:13:12.998Z,36.12
2019-02-16T09:14:13.088Z,37.00
2019-02-16T09:15:12.962Z,32.71
2019-02-16T09:16:14.041Z,33.81
2019-02-16T09:17:13.516Z,32.75
2019-02-16T09:18:12.989Z,33.34
2019-02-16T09:19:12.910Z,31.91
2019-02-16T09:20:12.981Z,28.98
2019-02-16T09:21:15.124Z,33.70
2019-02-16T09:22:13.566Z,33.31
2019-02-16T09:23:12.884Z,31.76
2019-02-16T09:24:12.872Z,29.92
2019-02-16T09:25:12.933Z,28.25
2019-02-16T09:26:12.840Z,28.75
2019-02-16T09:27:12.955Z,29.85
2019-02-16T09:28:12.844Z,26.85
2019-02-16T09:29:12.816Z,28.52
2019-02-16T09:30:12.805Z,25.98
2019-02-16T09:31:13.965Z,24.99
2019-02-16T09:32:13.272Z,25.39
2019-02-16T09:33:16.196Z,26.86
2019-02-16T09:34:12.775Z,26.15
2019-02-16T09:35:13.937Z,26.25
2019-02-16T09:36:12.728Z,25.97
2019-02-16T09:37:28.890Z,25.92
2019-02-16T09:38:12.728Z,27.75
2019-02-16T09:39:12.898Z,30.64
2019-02-16T09:40:12.691Z,32.64
2019-02-16T09:41:12.809Z,33.80
2019-02-16T09:42:12.670Z,35.48
2019-02-16T09:43:12.827Z,34.01
2019-02-16T09:44:12.642Z,35.36
2019-02-16T09:45:12.631Z,36.60
2019-02-16T09:46:12.622Z,34.86
2019-02-16T09:47:21.752Z,33.76
2019-02-16T09:48:12.583Z,36.31
2019-02-16T09:49:12.719Z,39.26
2019-02-16T09:50:12.574Z,37.43
2019-02-16T09:51:13.714Z,36.12
2019-02-16T09:52:12.544Z,37.55
2019-02-16T09:53:12.734Z,38.87
2019-02-16T09:54:12.535Z,36.02
2019-02-16T09:55:12.665Z,37.65
2019-02-16T09:56:12.517Z,38.04
2019-02-16T09:57:13.627Z,39.47
2019-02-16T09:58:12.490Z,37.23
2019-02-16T09:59:12.580Z,39.06
2019-02-16T10:00:13.889Z,38.67
2019-02-16T10:01:12.428Z,38.37
2019-02-16T10:02:12.429Z,35.92
2019-02-16T10:03:12.609Z,38.04
2019-02-16T10:04:12.420Z,38.14
2019-02-16T10:05:12.541Z,39.39
2019-02-16T10:06:12.511Z,38.14
2019-02-16T10:07:12.380Z,38.46
2019-02-16T10:08:14.501Z,35.19
2019-02-16T10:09:12.362Z,37.82
2019-02-16T10:10:12.493Z,39.57
2019-02-16T10:11:12.352Z,36.49
2019-02-16T10:12:12.533Z,40.59
2019-02-16T10:13:12.313Z,38.14
2019-02-16T10:14:12.504Z,41.61
2019-02-16T10:15:12.287Z,33.23
2019-02-16T10:16:12.395Z,39.74
2019-02-16T10:17:14.415Z,37.19
2019-02-16T10:18:12.255Z,34.73
2019-02-16T10:19:12.362Z,34.93
2019-02-16T10:20:12.237Z,36.25
2019-02-16T10:21:12.327Z,37.48
2019-02-16T10:22:13.228Z,34.93
2019-02-16T10:23:12.198Z,37.79
2019-02-16T10:24:18.044Z,36.34
2019-02-16T10:25:13.189Z,35.34
2019-02-16T10:26:12.279Z,37.46
2019-02-16T10:27:12.160Z,33.80
2019-02-16T10:28:12.210Z,35.32
2019-02-16T10:29:12.163Z,34.61
2019-02-16T10:30:12.155Z,33.48
2019-02-16T10:31:12.118Z,33.37
2019-02-16T10:32:12.184Z,33.48
2019-02-16T10:33:12.154Z,35.31
2019-02-16T10:34:12.089Z,38.04
2019-02-16T10:35:13.165Z,32.04
2019-02-16T10:36:12.054Z,31.32
2019-02-16T10:37:13.149Z,34.68
2019-02-16T10:38:12.102Z,33.97
2019-02-16T10:39:12.067Z,33.66
2019-02-16T10:40:12.027Z,36.21
2019-02-16T10:41:12.107Z,31.93
2019-02-16T10:42:11.998Z,32.75
2019-02-16T10:43:12.028Z,31.63
2019-02-16T10:44:11.970Z,33.46
2019-02-16T10:45:13.039Z,36.02
2019-02-16T10:46:11.942Z,37.54
2019-02-16T10:47:11.999Z,36.75
2019-02-16T10:48:11.922Z,32.98
2019-02-16T10:49:11.911Z,30.83
2019-02-16T10:50:11.951Z,33.97
2019-02-16T10:51:11.892Z,37.73
2019-02-16T10:52:11.942Z,33.75
2019-02-16T10:53:11.862Z,33.95
2019-02-16T10:54:11.865Z,32.73
2019-02-16T10:55:11.863Z,35.48
2019-02-16T10:56:11.916Z,30.98
2019-02-16T10:57:11.843Z,32.09
2019-02-16T10:58:11.845Z,29.64
2019-02-16T10:59:11.796Z,31.06
2019-02-16T11:00:11.827Z,29.24
2019-02-16T11:01:11.747Z,29.83
2019-02-16T11:02:11.818Z,31.56
2019-02-16T11:03:11.760Z,30.64
2019-02-16T11:04:11.768Z,36.12
2019-02-16T11:05:11.739Z,33.40
2019-02-16T11:06:13.748Z,31.47
2019-02-16T11:07:11.699Z,32.28
2019-02-16T11:08:11.730Z,29.24
2019-02-16T11:09:11.680Z,29.03
2019-02-16T11:10:11.680Z,30.66
2019-02-16T11:11:11.650Z,28.02
2019-02-16T11:12:11.704Z,29.83
2019-02-16T11:13:11.611Z,30.45
2019-02-16T11:14:11.752Z,36.54
2019-02-16T11:15:11.635Z,31.67
2019-02-16T11:16:11.603Z,29.05
2019-02-16T11:17:11.654Z,29.96
2019-02-16T11:18:11.580Z,31.99
2019-02-16T11:19:11.562Z,33.51
2019-02-16T11:20:11.586Z,37.90
2019-02-16T11:21:11.556Z,35.97
2019-02-16T11:22:11.567Z,34.65
2019-02-16T11:23:11.537Z,34.66
2019-02-16T11:24:11.631Z,34.87
2019-02-16T11:25:11.542Z,33.24
2019-02-16T11:26:11.491Z,29.79
2019-02-16T11:27:11.529Z,30.06
2019-02-16T11:28:11.481Z,28.83
2019-02-16T11:29:11.574Z,30.44
2019-02-16T11:30:11.440Z,28.61
2019-02-16T11:31:11.465Z,28.81
2019-02-16T11:32:11.431Z,26.76
2019-02-16T11:33:13.422Z,28.69
2019-02-16T11:34:11.414Z,26.56
2019-02-16T11:35:11.475Z,26.05
2019-02-16T11:36:11.500Z,26.98
2019-02-16T11:37:11.386Z,27.06
2019-02-16T11:38:12.395Z,27.67
2019-02-16T11:39:11.365Z,28.88
2019-02-16T11:40:11.406Z,24.52
2019-02-16T11:41:18.628Z,26.43
2019-02-16T11:42:12.327Z,27.53
2019-02-16T11:43:11.417Z,28.56
2019-02-16T11:44:11.307Z,29.58
2019-02-16T11:45:12.369Z,29.30
2019-02-16T11:46:11.299Z,30.12
2019-02-16T11:47:11.272Z,29.92
2019-02-16T11:48:11.349Z,28.39
2019-02-16T11:49:11.250Z,28.60
2019-02-16T11:50:11.291Z,30.02
2019-02-16T11:51:11.244Z,28.31
2019-02-16T11:52:11.220Z,30.04
2019-02-16T11:53:11.203Z,29.52
2019-02-16T11:54:11.263Z,28.92
2019-02-16T11:55:11.186Z,29.73
2019-02-16T11:56:12.274Z,31.15
2019-02-16T11:57:11.171Z,29.83
2019-02-16T11:58:11.145Z,31.64
2019-02-16T11:59:11.197Z,27.29
2019-02-16T12:00:11.120Z,28.11
2019-02-16T12:01:11.183Z,27.60
2019-02-16T12:02:11.101Z,28.81
2019-02-16T12:03:12.217Z,27.28
2019-02-16T12:04:11.073Z,29.00
2019-02-16T12:05:12.128Z,28.09
2019-02-16T12:06:11.060Z,28.30
2019-02-16T12:07:11.142Z,31.54
2019-02-16T12:08:11.033Z,31.66
2019-02-16T12:09:11.081Z,29.83
2019-02-16T12:10:11.001Z,28.73
2019-02-16T12:11:11.062Z,27.31
2019-02-16T12:12:10.982Z,26.79
2019-02-16T12:13:10.962Z,30.04
2019-02-16T12:14:10.953Z,32.28
2019-02-16T12:15:10.983Z,29.54
2019-02-16T12:16:11.129Z,32.89
2019-02-16T12:17:11.029Z,31.68
2019-02-16T12:18:10.915Z,31.18
2019-02-16T12:19:10.955Z,29.86
2019-02-16T12:20:10.886Z,30.68
2019-02-16T12:21:10.916Z,29.06
2019-02-16T12:22:10.888Z,30.68
2019-02-16T12:23:11.972Z,30.99
2019-02-16T12:24:10.881Z,31.70
2019-02-16T12:25:10.869Z,31.31
2019-02-16T12:26:10.819Z,31.41
2019-02-16T12:27:10.849Z,29.38
2019-02-16T12:28:10.800Z,28.45
2019-02-16T12:29:10.804Z,30.79
2019-02-16T12:30:10.800Z,30.99
2019-02-16T12:31:10.772Z,30.90
2019-02-16T12:32:10.782Z,31.21
2019-02-16T12:33:10.757Z,30.70
2019-02-16T12:34:10.793Z,35.78
2019-02-16T12:35:10.742Z,32.14
2019-02-16T12:36:10.824Z,31.02
2019-02-16T12:37:10.724Z,35.39
2019-02-16T12:38:12.805Z,36.41
2019-02-16T12:39:10.685Z,34.90
2019-02-16T12:40:10.677Z,30.83
2019-02-16T12:41:12.706Z,28.97
2019-02-16T12:42:10.666Z,29.77
2019-02-16T12:43:10.698Z,29.86
2019-02-16T12:44:10.629Z,29.25
2019-02-16T12:45:10.620Z,30.67
2019-02-16T12:46:10.594Z,29.67
2019-02-16T12:47:10.720Z,31.29
2019-02-16T12:48:10.606Z,32.21
2019-02-16T12:49:10.603Z,31.90
2019-02-16T12:50:10.577Z,34.95
2019-02-16T12:51:10.642Z,33.04
2019-02-16T12:52:10.572Z,31.92